sensor_id;sensor_type;location;lat;lon;timestamp;pressure;altitude;pressure_sealevel;temperature;humidity
23339;BME280;11841;49.368;20.962;2023-01-31T00:01:21;94886.72;;;-0.34;97.13
23339;BME280;11841;49.368;20.962;2023-01-31T00:03:55;94885.25;;;-0.37;97.45
23339;BME280;11841;49.368;20.962;2023-01-31T00:06:28;94890.13;;;-0.34;97.38
23339;BME280;11841;49.368;20.962;2023-01-31T00:08:56;94887.81;;;-0.29;97.14
23339;BME280;11841;49.368;20.962;2023-01-31T00:11:23;94866.97;;;-0.29;97.30
23339;BME280;11841;49.368;20.962;2023-01-31T00:13:51;94876.59;;;-0.29;97.30
23339;BME280;11841;49.368;20.962;2023-01-31T00:16:18;94878.25;;;-0.36;97.30
23339;BME280;11841;49.368;20.962;2023-01-31T00:18:44;94888.50;;;-0.35;97.75
23339;BME280;11841;49.368;20.962;2023-01-31T00:21:18;94878.38;;;-0.30;97.52
23339;BME280;11841;49.368;20.962;2023-01-31T00:23:45;94877.22;;;-0.27;97.61
23339;BME280;11841;49.368;20.962;2023-01-31T00:26:19;94856.84;;;-0.24;97.41
23339;BME280;11841;49.368;20.962;2023-01-31T00:28:46;94873.81;;;-0.28;98.46
23339;BME280;11841;49.368;20.962;2023-01-31T00:31:14;94869.75;;;-0.30;98.18
23339;BME280;11841;49.368;20.962;2023-01-31T00:33:42;94862.75;;;-0.30;97.82
23339;BME280;11841;49.368;20.962;2023-01-31T00:36:09;94864.72;;;-0.32;98.13
23339;BME280;11841;49.368;20.962;2023-01-31T00:38:37;94871.56;;;-0.31;97.84
23339;BME280;11841;49.368;20.962;2023-01-31T00:41:04;94877.72;;;-0.32;97.92
23339;BME280;11841;49.368;20.962;2023-01-31T00:43:30;94868.13;;;-0.31;97.55
23339;BME280;11841;49.368;20.962;2023-01-31T00:45:58;94872.19;;;-0.29;97.28
23339;BME280;11841;49.368;20.962;2023-01-31T00:48:24;94882.94;;;-0.32;96.96
23339;BME280;11841;49.368;20.962;2023-01-31T00:50:51;94876.78;;;-0.31;96.62
23339;BME280;11841;49.368;20.962;2023-01-31T00:53:17;94886.88;;;-0.36;96.36
23339;BME280;11841;49.368;20.962;2023-01-31T00:55:49;94874.84;;;-0.37;96.44
23339;BME280;11841;49.368;20.962;2023-01-31T00:58:16;94875.66;;;-0.36;96.06
23339;BME280;11841;49.368;20.962;2023-01-31T01:00:43;94880.38;;;-0.40;95.72
23339;BME280;11841;49.368;20.962;2023-01-31T01:03:09;94877.97;;;-0.41;95.44
23339;BME280;11841;49.368;20.962;2023-01-31T01:05:36;94887.56;;;-0.42;95.52
23339;BME280;11841;49.368;20.962;2023-01-31T01:08:02;94887.22;;;-0.39;95.70
23339;BME280;11841;49.368;20.962;2023-01-31T01:10:29;94897.78;;;-0.40;95.14
23339;BME280;11841;49.368;20.962;2023-01-31T01:12:55;94891.94;;;-0.42;95.36
23339;BME280;11841;49.368;20.962;2023-01-31T01:15:22;94889.97;;;-0.40;95.45
23339;BME280;11841;49.368;20.962;2023-01-31T01:17:48;94901.88;;;-0.38;95.45
23339;BME280;11841;49.368;20.962;2023-01-31T01:20:16;94907.38;;;-0.41;95.92
23339;BME280;11841;49.368;20.962;2023-01-31T01:22:42;94898.31;;;-0.45;95.46
23339;BME280;11841;49.368;20.962;2023-01-31T01:25:09;94909.88;;;-0.47;96.06
23339;BME280;11841;49.368;20.962;2023-01-31T01:27:36;94915.91;;;-0.47;95.83
23339;BME280;11841;49.368;20.962;2023-01-31T01:30:03;94912.78;;;-0.42;96.00
23339;BME280;11841;49.368;20.962;2023-01-31T01:32:29;94911.34;;;-0.45;96.69
23339;BME280;11841;49.368;20.962;2023-01-31T01:34:56;94899.56;;;-0.41;96.62
23339;BME280;11841;49.368;20.962;2023-01-31T01:37:22;94911.16;;;-0.43;96.73
23339;BME280;11841;49.368;20.962;2023-01-31T01:39:49;94905.78;;;-0.42;97.09
23339;BME280;11841;49.368;20.962;2023-01-31T01:42:18;94905.78;;;-0.42;97.07
23339;BME280;11841;49.368;20.962;2023-01-31T01:49:54;94911.13;;;-0.35;97.43
23339;BME280;11841;49.368;20.962;2023-01-31T01:52:23;94916.50;;;-0.37;97.03
23339;BME280;11841;49.368;20.962;2023-01-31T01:54:59;94909.81;;;-0.31;97.10
23339;BME280;11841;49.368;20.962;2023-01-31T01:57:30;94913.22;;;-0.31;97.20
23339;BME280;11841;49.368;20.962;2023-01-31T02:00:01;94910.94;;;-0.34;97.32
23339;BME280;11841;49.368;20.962;2023-01-31T02:02:30;94923.66;;;-0.39;98.08
23339;BME280;11841;49.368;20.962;2023-01-31T02:04:57;94920.41;;;-0.33;98.54
23339;BME280;11841;49.368;20.962;2023-01-31T02:07:24;94916.94;;;-0.25;99.09
23339;BME280;11841;49.368;20.962;2023-01-31T02:12:43;94904.31;;;-0.06;98.82
23339;BME280;11841;49.368;20.962;2023-01-31T02:15:10;94922.97;;;0.06;98.24
23339;BME280;11841;49.368;20.962;2023-01-31T02:17:36;94921.47;;;0.12;98.25
23339;BME280;11841;49.368;20.962;2023-01-31T02:32:43;94939.88;;;0.33;98.19
23339;BME280;11841;49.368;20.962;2023-01-31T02:38:07;94953.19;;;0.46;98.34
23339;BME280;11841;49.368;20.962;2023-01-31T02:40:41;94938.00;;;0.49;98.19
23339;BME280;11841;49.368;20.962;2023-01-31T02:43:18;94944.66;;;0.52;98.21
23339;BME280;11841;49.368;20.962;2023-01-31T02:45:51;94943.50;;;0.54;98.99
23339;BME280;11841;49.368;20.962;2023-01-31T02:51:06;94951.72;;;0.66;98.15
23339;BME280;11841;49.368;20.962;2023-01-31T02:53:39;94948.78;;;0.69;98.16
23339;BME280;11841;49.368;20.962;2023-01-31T02:56:10;94956.41;;;0.70;98.23
23339;BME280;11841;49.368;20.962;2023-01-31T02:58:40;94953.44;;;0.73;98.18
23339;BME280;11841;49.368;20.962;2023-01-31T03:01:09;94955.88;;;0.75;98.19
23339;BME280;11841;49.368;20.962;2023-01-31T03:03:40;94965.34;;;0.76;98.39
23339;BME280;11841;49.368;20.962;2023-01-31T03:08:33;94975.13;;;0.74;98.90
23339;BME280;11841;49.368;20.962;2023-01-31T03:11:01;94976.44;;;0.78;98.73
23339;BME280;11841;49.368;20.962;2023-01-31T03:16:01;94993.50;;;0.80;98.94
23339;BME280;11841;49.368;20.962;2023-01-31T03:21:34;94991.19;;;0.85;99.45
23339;BME280;11841;49.368;20.962;2023-01-31T03:24:02;94997.88;;;0.88;99.50
23339;BME280;11841;49.368;20.962;2023-01-31T03:26:29;94990.69;;;0.90;99.24
23339;BME280;11841;49.368;20.962;2023-01-31T03:28:56;94991.28;;;0.92;99.66
23339;BME280;11841;49.368;20.962;2023-01-31T03:31:28;95001.72;;;0.92;99.73
23339;BME280;11841;49.368;20.962;2023-01-31T03:34:01;95009.56;;;0.92;100.00
23339;BME280;11841;49.368;20.962;2023-01-31T03:41:33;95017.09;;;0.87;100.00
23339;BME280;11841;49.368;20.962;2023-01-31T03:44:06;95029.38;;;0.86;100.00
23339;BME280;11841;49.368;20.962;2023-01-31T03:46:39;95039.28;;;0.91;100.00
23339;BME280;11841;49.368;20.962;2023-01-31T03:49:09;95032.72;;;0.95;100.00
23339;BME280;11841;49.368;20.962;2023-01-31T03:51:40;95040.84;;;1.00;100.00
23339;BME280;11841;49.368;20.962;2023-01-31T03:54:08;95049.00;;;0.97;100.00
23339;BME280;11841;49.368;20.962;2023-01-31T03:56:49;95048.66;;;1.00;100.00
23339;BME280;11841;49.368;20.962;2023-01-31T03:59:19;95050.94;;;1.03;100.00
23339;BME280;11841;49.368;20.962;2023-01-31T04:01:48;95057.47;;;0.99;100.00
23339;BME280;11841;49.368;20.962;2023-01-31T04:04:22;95048.03;;;0.98;100.00
23339;BME280;11841;49.368;20.962;2023-01-31T04:06:50;95048.66;;;1.00;99.70
23339;BME280;11841;49.368;20.962;2023-01-31T04:09:17;95051.09;;;1.01;99.31
23339;BME280;11841;49.368;20.962;2023-01-31T04:11:45;95052.19;;;1.07;99.25
23339;BME280;11841;49.368;20.962;2023-01-31T04:14:12;95057.72;;;1.12;99.21
23339;BME280;11841;49.368;20.962;2023-01-31T04:16:39;95060.47;;;1.10;99.50
23339;BME280;11841;49.368;20.962;2023-01-31T04:19:06;95082.19;;;1.11;99.36
23339;BME280;11841;49.368;20.962;2023-01-31T04:21:32;95075.00;;;1.13;99.24
23339;BME280;11841;49.368;20.962;2023-01-31T04:23:59;95081.81;;;1.14;98.08
23339;BME280;11841;49.368;20.962;2023-01-31T04:26:25;95085.72;;;1.18;97.43
23339;BME280;11841;49.368;20.962;2023-01-31T04:28:52;95092.22;;;1.22;96.88
23339;BME280;11841;49.368;20.962;2023-01-31T04:31:18;95089.44;;;1.23;96.37
23339;BME280;11841;49.368;20.962;2023-01-31T04:33:45;95091.22;;;1.23;95.73
23339;BME280;11841;49.368;20.962;2023-01-31T04:36:11;95092.38;;;1.20;95.38
23339;BME280;11841;49.368;20.962;2023-01-31T04:38:38;95095.00;;;1.20;94.68
23339;BME280;11841;49.368;20.962;2023-01-31T04:41:04;95094.50;;;1.25;94.97
23339;BME280;11841;49.368;20.962;2023-01-31T04:43:31;95086.31;;;1.28;95.17
23339;BME280;11841;49.368;20.962;2023-01-31T04:45:58;95092.53;;;1.27;94.65
23339;BME280;11841;49.368;20.962;2023-01-31T04:48:24;95100.66;;;1.32;94.79
23339;BME280;11841;49.368;20.962;2023-01-31T04:50:51;95107.84;;;1.30;94.72
23339;BME280;11841;49.368;20.962;2023-01-31T04:53:17;95104.94;;;1.25;94.50
23339;BME280;11841;49.368;20.962;2023-01-31T04:55:44;95104.28;;;1.23;93.48
23339;BME280;11841;49.368;20.962;2023-01-31T04:58:10;95115.84;;;1.29;93.83
23339;BME280;11841;49.368;20.962;2023-01-31T05:00:37;95112.06;;;1.31;93.97
23339;BME280;11841;49.368;20.962;2023-01-31T05:03:03;95120.19;;;1.36;93.76
23339;BME280;11841;49.368;20.962;2023-01-31T05:05:31;95112.97;;;1.38;93.37
23339;BME280;11841;49.368;20.962;2023-01-31T05:08:01;95118.38;;;1.37;93.04
23339;BME280;11841;49.368;20.962;2023-01-31T05:10:27;95119.84;;;1.39;92.91
23339;BME280;11841;49.368;20.962;2023-01-31T05:12:54;95121.47;;;1.40;92.50
23339;BME280;11841;49.368;20.962;2023-01-31T05:15:20;95126.03;;;1.38;91.94
23339;BME280;11841;49.368;20.962;2023-01-31T05:17:51;95127.22;;;1.36;91.80
23339;BME280;11841;49.368;20.962;2023-01-31T05:20:18;95125.94;;;1.32;91.72
23339;BME280;11841;49.368;20.962;2023-01-31T05:22:46;95128.53;;;1.32;91.73
23339;BME280;11841;49.368;20.962;2023-01-31T05:25:13;95120.88;;;1.30;91.46
23339;BME280;11841;49.368;20.962;2023-01-31T05:27:40;95122.78;;;1.36;91.66
23339;BME280;11841;49.368;20.962;2023-01-31T05:30:07;95122.78;;;1.36;91.65
23339;BME280;11841;49.368;20.962;2023-01-31T05:32:35;95128.53;;;1.32;91.19
23339;BME280;11841;49.368;20.962;2023-01-31T05:35:02;95130.81;;;1.35;91.27
23339;BME280;11841;49.368;20.962;2023-01-31T05:37:28;95139.53;;;1.27;90.92
23339;BME280;11841;49.368;20.962;2023-01-31T05:39:55;95132.66;;;1.26;91.11
23339;BME280;11841;49.368;20.962;2023-01-31T05:42:22;95150.66;;;1.21;90.51
23339;BME280;11841;49.368;20.962;2023-01-31T05:44:48;95154.25;;;1.20;90.45
23339;BME280;11841;49.368;20.962;2023-01-31T05:47:15;95152.91;;;1.24;90.14
23339;BME280;11841;49.368;20.962;2023-01-31T05:49:41;95156.03;;;1.19;89.87
23339;BME280;11841;49.368;20.962;2023-01-31T05:52:08;95168.91;;;1.21;89.68
23339;BME280;11841;49.368;20.962;2023-01-31T05:54:35;95167.94;;;1.22;89.86
23339;BME280;11841;49.368;20.962;2023-01-31T05:57:01;95175.78;;;1.22;89.80
23339;BME280;11841;49.368;20.962;2023-01-31T05:59:27;95179.84;;;1.24;89.52
23339;BME280;11841;49.368;20.962;2023-01-31T06:01:56;95192.41;;;1.21;89.32
23339;BME280;11841;49.368;20.962;2023-01-31T06:04:22;95194.72;;;1.16;89.54
23339;BME280;11841;49.368;20.962;2023-01-31T06:06:49;95202.22;;;1.19;89.39
23339;BME280;11841;49.368;20.962;2023-01-31T06:09:15;95203.75;;;1.13;88.87
23339;BME280;11841;49.368;20.962;2023-01-31T06:11:42;95211.75;;;1.12;88.95
23339;BME280;11841;49.368;20.962;2023-01-31T06:14:08;95221.19;;;1.13;89.83
23339;BME280;11841;49.368;20.962;2023-01-31T06:16:35;95217.94;;;1.11;90.37
23339;BME280;11841;49.368;20.962;2023-01-31T06:19:01;95226.94;;;1.08;91.55
23339;BME280;11841;49.368;20.962;2023-01-31T06:21:28;95221.84;;;1.07;92.01
23339;BME280;11841;49.368;20.962;2023-01-31T06:23:55;95223.16;;;1.11;92.18
23339;BME280;11841;49.368;20.962;2023-01-31T06:26:21;95234.41;;;1.11;91.87
23339;BME280;11841;49.368;20.962;2023-01-31T06:28:48;95235.25;;;1.12;92.41
23339;BME280;11841;49.368;20.962;2023-01-31T06:31:14;95236.25;;;1.03;92.18
23339;BME280;11841;49.368;20.962;2023-01-31T06:33:41;95234.28;;;1.05;92.36
23339;BME280;11841;49.368;20.962;2023-01-31T06:36:12;95245.53;;;1.05;91.92
23339;BME280;11841;49.368;20.962;2023-01-31T06:38:41;95239.03;;;1.01;92.25
23339;BME280;11841;49.368;20.962;2023-01-31T06:41:07;95228.47;;;0.95;91.65
23339;BME280;11841;49.368;20.962;2023-01-31T06:43:34;95232.03;;;0.94;91.00
23339;BME280;11841;49.368;20.962;2023-01-31T06:46:00;95242.47;;;0.94;91.13
23339;BME280;11841;49.368;20.962;2023-01-31T06:48:27;95242.81;;;0.91;91.19
23339;BME280;11841;49.368;20.962;2023-01-31T06:50:54;95238.59;;;0.90;90.72
23339;BME280;11841;49.368;20.962;2023-01-31T06:53:20;95248.03;;;0.91;90.27
23339;BME280;11841;49.368;20.962;2023-01-31T06:55:47;95248.69;;;0.93;90.54
23339;BME280;11841;49.368;20.962;2023-01-31T06:58:14;95250.31;;;0.94;89.40
23339;BME280;11841;49.368;20.962;2023-01-31T07:00:40;95254.56;;;0.95;88.71
23339;BME280;11841;49.368;20.962;2023-01-31T07:03:07;95256.34;;;0.94;88.30
23339;BME280;11841;49.368;20.962;2023-01-31T07:05:33;95253.56;;;0.96;87.86
23339;BME280;11841;49.368;20.962;2023-01-31T07:08:00;95249.66;;;1.00;87.15
23339;BME280;11841;49.368;20.962;2023-01-31T07:10:26;95252.09;;;1.01;87.34
23339;BME280;11841;49.368;20.962;2023-01-31T07:12:53;95255.84;;;0.99;87.39
23339;BME280;11841;49.368;20.962;2023-01-31T07:15:19;95254.53;;;1.03;87.71
23339;BME280;11841;49.368;20.962;2023-01-31T07:17:46;95247.50;;;1.03;87.06
23339;BME280;11841;49.368;20.962;2023-01-31T07:20:13;95249.78;;;1.06;86.75
23339;BME280;11841;49.368;20.962;2023-01-31T07:22:39;95266.28;;;0.99;86.55
23339;BME280;11841;49.368;20.962;2023-01-31T07:25:06;95260.72;;;1.02;85.95
23339;BME280;11841;49.368;20.962;2023-01-31T07:27:32;95274.41;;;1.04;85.97
23339;BME280;11841;49.368;20.962;2023-01-31T07:29:59;95275.41;;;1.03;85.83
23339;BME280;11841;49.368;20.962;2023-01-31T07:32:27;95281.59;;;1.02;84.74
23339;BME280;11841;49.368;20.962;2023-01-31T07:34:53;95288.47;;;1.03;84.65
23339;BME280;11841;49.368;20.962;2023-01-31T07:37:20;95280.44;;;1.04;84.78
23339;BME280;11841;49.368;20.962;2023-01-31T07:39:46;95296.94;;;1.05;84.86
23339;BME280;11841;49.368;20.962;2023-01-31T07:42:13;95299.22;;;1.08;85.19
23339;BME280;11841;49.368;20.962;2023-01-31T07:44:39;95308.00;;;1.15;85.24
23339;BME280;11841;49.368;20.962;2023-01-31T07:47:06;95304.88;;;1.19;84.90
23339;BME280;11841;49.368;20.962;2023-01-31T07:49:32;95322.50;;;1.17;83.33
23339;BME280;11841;49.368;20.962;2023-01-31T07:52:00;95325.94;;;1.18;83.44
23339;BME280;11841;49.368;20.962;2023-01-31T07:54:26;95337.81;;;1.20;83.96
23339;BME280;11841;49.368;20.962;2023-01-31T07:56:52;95340.59;;;1.19;83.14
23339;BME280;11841;49.368;20.962;2023-01-31T07:59:19;95343.50;;;1.24;83.73
23339;BME280;11841;49.368;20.962;2023-01-31T08:01:45;95353.66;;;1.27;83.10
23339;BME280;11841;49.368;20.962;2023-01-31T08:04:31;95357.88;;;1.28;83.24
23339;BME280;11841;49.368;20.962;2023-01-31T08:06:59;95355.25;;;1.28;83.08
23339;BME280;11841;49.368;20.962;2023-01-31T08:09:28;95351.22;;;1.26;82.59
23339;BME280;11841;49.368;20.962;2023-01-31T08:11:55;95360.97;;;1.32;83.56
23339;BME280;11841;49.368;20.962;2023-01-31T08:14:22;95369.09;;;1.37;83.60
23339;BME280;11841;49.368;20.962;2023-01-31T08:16:51;95375.63;;;1.41;83.58
23339;BME280;11841;49.368;20.962;2023-01-31T08:19:17;95362.41;;;1.42;83.58
23339;BME280;11841;49.368;20.962;2023-01-31T08:21:44;95374.47;;;1.43;83.34
23339;BME280;11841;49.368;20.962;2023-01-31T08:24:11;95363.38;;;1.41;83.95
23339;BME280;11841;49.368;20.962;2023-01-31T08:26:37;95373.19;;;1.39;84.15
23339;BME280;11841;49.368;20.962;2023-01-31T08:29:04;95374.81;;;1.40;83.95
23339;BME280;11841;49.368;20.962;2023-01-31T08:31:30;95380.69;;;1.34;84.45
23339;BME280;11841;49.368;20.962;2023-01-31T08:33:57;95380.38;;;1.37;83.98
23339;BME280;11841;49.368;20.962;2023-01-31T08:36:26;95375.81;;;1.39;84.39
23339;BME280;11841;49.368;20.962;2023-01-31T08:38:53;95384.78;;;1.37;84.06
23339;BME280;11841;49.368;20.962;2023-01-31T08:41:21;95382.34;;;1.35;82.91
23339;BME280;11841;49.368;20.962;2023-01-31T08:43:48;95377.78;;;1.37;82.88
23339;BME280;11841;49.368;20.962;2023-01-31T08:46:24;95372.84;;;1.42;82.57
23339;BME280;11841;49.368;20.962;2023-01-31T08:48:51;95397.31;;;1.41;81.86
23339;BME280;11841;49.368;20.962;2023-01-31T08:51:18;95394.72;;;1.41;83.03
23339;BME280;11841;49.368;20.962;2023-01-31T08:53:45;95387.03;;;1.40;83.50
23339;BME280;11841;49.368;20.962;2023-01-31T08:56:11;95379.72;;;1.35;83.25
23339;BME280;11841;49.368;20.962;2023-01-31T08:58:39;95385.09;;;1.42;83.81
23339;BME280;11841;49.368;20.962;2023-01-31T09:01:08;95402.56;;;1.41;83.68
23339;BME280;11841;49.368;20.962;2023-01-31T09:03:34;95395.72;;;1.40;81.96
23339;BME280;11841;49.368;20.962;2023-01-31T09:06:02;95398.31;;;1.40;81.88
23339;BME280;11841;49.368;20.962;2023-01-31T09:08:30;95395.53;;;1.42;82.86
23339;BME280;11841;49.368;20.962;2023-01-31T09:10:57;95411.03;;;1.43;82.81
23339;BME280;11841;49.368;20.962;2023-01-31T09:13:25;95411.38;;;1.40;82.86
23339;BME280;11841;49.368;20.962;2023-01-31T09:15:56;95413.66;;;1.43;83.38
23339;BME280;11841;49.368;20.962;2023-01-31T09:18:22;95398.97;;;1.42;82.64
23339;BME280;11841;49.368;20.962;2023-01-31T09:20:49;95409.06;;;1.45;83.22
23339;BME280;11841;49.368;20.962;2023-01-31T09:23:15;95419.53;;;1.45;83.94
23339;BME280;11841;49.368;20.962;2023-01-31T09:25:42;95410.88;;;1.53;83.76
23339;BME280;11841;49.368;20.962;2023-01-31T09:28:13;95412.81;;;1.51;84.11
23339;BME280;11841;49.368;20.962;2023-01-31T09:30:39;95418.69;;;1.45;83.53
23339;BME280;11841;49.368;20.962;2023-01-31T09:33:06;95416.09;;;1.45;82.92
23339;BME280;11841;49.368;20.962;2023-01-31T09:35:32;95418.22;;;1.49;83.20
23339;BME280;11841;49.368;20.962;2023-01-31T09:37:59;95420.97;;;1.56;82.42
23339;BME280;11841;49.368;20.962;2023-01-31T09:40:26;95431.91;;;1.51;82.16
23339;BME280;11841;49.368;20.962;2023-01-31T09:42:57;95428.63;;;1.57;82.86
23339;BME280;11841;49.368;20.962;2023-01-31T09:45:34;95433.84;;;1.57;81.75
23339;BME280;11841;49.368;20.962;2023-01-31T09:48:02;95433.50;;;1.60;81.91
23339;BME280;11841;49.368;20.962;2023-01-31T09:53:00;95449.53;;;1.57;81.54
23339;BME280;11841;49.368;20.962;2023-01-31T09:55:34;95444.97;;;1.51;81.05
23339;BME280;11841;49.368;20.962;2023-01-31T10:00:49;95433.50;;;1.60;82.44
23339;BME280;11841;49.368;20.962;2023-01-31T10:06:04;95427.94;;;1.63;81.72
23339;BME280;11841;49.368;20.962;2023-01-31T10:11:01;95436.16;;;1.52;82.84
23339;BME280;11841;49.368;20.962;2023-01-31T10:18:37;95442.03;;;1.46;84.13
23339;BME280;11841;49.368;20.962;2023-01-31T10:21:10;95439.44;;;1.46;84.35
23339;BME280;11841;49.368;20.962;2023-01-31T10:23:49;95431.94;;;1.43;83.19
23339;BME280;11841;49.368;20.962;2023-01-31T10:28:53;95424.41;;;1.48;84.24
23339;BME280;11841;49.368;20.962;2023-01-31T10:31:31;95440.72;;;1.50;83.98
23339;BME280;11841;49.368;20.962;2023-01-31T10:34:02;95434.19;;;1.46;83.41
23339;BME280;11841;49.368;20.962;2023-01-31T10:36:41;95439.75;;;1.51;84.24
23339;BME280;11841;49.368;20.962;2023-01-31T10:39:16;95439.91;;;1.58;84.04
23339;BME280;11841;49.368;20.962;2023-01-31T10:44:23;95435.63;;;1.65;83.57
23339;BME280;11841;49.368;20.962;2023-01-31T10:46:54;95448.22;;;1.61;83.44
23339;BME280;11841;49.368;20.962;2023-01-31T10:49:22;95435.94;;;1.62;82.91
23339;BME280;11841;49.368;20.962;2023-01-31T10:54:41;95439.50;;;1.77;82.12
23339;BME280;11841;49.368;20.962;2023-01-31T10:57:12;95447.16;;;1.78;81.93
23339;BME280;11841;49.368;20.962;2023-01-31T10:59:40;95447.16;;;1.78;81.54
23339;BME280;11841;49.368;20.962;2023-01-31T11:02:15;95443.22;;;1.82;81.13
23339;BME280;11841;49.368;20.962;2023-01-31T11:04:43;95432.47;;;1.77;81.15
23339;BME280;11841;49.368;20.962;2023-01-31T11:07:09;95439.00;;;1.73;80.98
23339;BME280;11841;49.368;20.962;2023-01-31T11:09:37;95451.13;;;1.74;81.61
23339;BME280;11841;49.368;20.962;2023-01-31T11:12:05;95453.09;;;1.64;81.64
23339;BME280;11841;49.368;20.962;2023-01-31T11:14:32;95450.50;;;1.64;82.20
23339;BME280;11841;49.368;20.962;2023-01-31T11:17:00;95454.59;;;1.59;82.17
23339;BME280;11841;49.368;20.962;2023-01-31T11:21:54;95456.09;;;1.45;83.26
23339;BME280;11841;49.368;20.962;2023-01-31T11:24:22;95460.00;;;1.49;83.62
23339;BME280;11841;49.368;20.962;2023-01-31T11:29:24;95456.38;;;1.58;83.33
23339;BME280;11841;49.368;20.962;2023-01-31T11:31:52;95459.31;;;1.63;83.14
23339;BME280;11841;49.368;20.962;2023-01-31T11:34:24;95464.56;;;1.55;83.32
23339;BME280;11841;49.368;20.962;2023-01-31T11:36:51;95457.38;;;1.57;83.32
23339;BME280;11841;49.368;20.962;2023-01-31T11:39:31;95460.63;;;1.59;83.69
23339;BME280;11841;49.368;20.962;2023-01-31T11:42:05;95458.81;;;1.60;83.91
23339;BME280;11841;49.368;20.962;2023-01-31T11:44:32;95460.81;;;1.58;83.38
23339;BME280;11841;49.368;20.962;2023-01-31T11:47:05;95461.28;;;1.61;84.01
23339;BME280;11841;49.368;20.962;2023-01-31T11:49:38;95457.50;;;1.64;84.00
23339;BME280;11841;49.368;20.962;2023-01-31T11:52:13;95454.72;;;1.65;83.79
23339;BME280;11841;49.368;20.962;2023-01-31T11:54:59;95451.28;;;1.65;84.52
23339;BME280;11841;49.368;20.962;2023-01-31T11:57:31;95463.56;;;1.64;84.93
23339;BME280;11841;49.368;20.962;2023-01-31T11:59:59;95455.06;;;1.62;85.44
23339;BME280;11841;49.368;20.962;2023-01-31T12:04:53;95468.81;;;1.48;85.35
23339;BME280;11841;49.368;20.962;2023-01-31T12:07:24;95463.28;;;1.43;85.83
23339;BME280;11841;49.368;20.962;2023-01-31T12:09:52;95466.22;;;1.40;85.95
23339;BME280;11841;49.368;20.962;2023-01-31T12:12:22;95469.19;;;1.37;85.89
23339;BME280;11841;49.368;20.962;2023-01-31T12:14:50;95474.72;;;1.42;85.67
23339;BME280;11841;49.368;20.962;2023-01-31T12:17:16;95463.94;;;1.45;85.55
23339;BME280;11841;49.368;20.962;2023-01-31T12:22:33;95470.16;;;1.36;85.36
23339;BME280;11841;49.368;20.962;2023-01-31T12:25:14;95469.03;;;1.31;85.96
23339;BME280;11841;49.368;20.962;2023-01-31T12:27:46;95471.47;;;1.32;86.39
23339;BME280;11841;49.368;20.962;2023-01-31T12:46:04;95478.19;;;1.10;84.15
23339;BME280;11841;49.368;20.962;2023-01-31T12:48:45;95477.03;;;1.13;84.37
23339;BME280;11841;49.368;20.962;2023-01-31T12:56:36;95476.84;;;1.22;83.01
23339;BME280;11841;49.368;20.962;2023-01-31T12:59:15;95473.13;;;1.25;82.51
23339;BME280;11841;49.368;20.962;2023-01-31T13:07:08;95469.19;;;1.29;81.41
23339;BME280;11841;49.368;20.962;2023-01-31T13:09:38;95476.38;;;1.35;81.75
23339;BME280;11841;49.368;20.962;2023-01-31T13:12:11;95472.75;;;1.36;81.30
23339;BME280;11841;49.368;20.962;2023-01-31T13:14:41;95486.66;;;1.29;80.55
23339;BME280;11841;49.368;20.962;2023-01-31T13:17:11;95486.03;;;1.18;81.06
23339;BME280;11841;49.368;20.962;2023-01-31T13:19:40;95480.28;;;1.23;81.90
23339;BME280;11841;49.368;20.962;2023-01-31T13:24:43;95489.75;;;1.24;80.30
23339;BME280;11841;49.368;20.962;2023-01-31T13:29:41;95477.69;;;1.23;79.98
23339;BME280;11841;49.368;20.962;2023-01-31T13:32:10;95475.72;;;1.25;79.88
23339;BME280;11841;49.368;20.962;2023-01-31T13:34:43;95466.56;;;1.29;79.81
23339;BME280;11841;49.368;20.962;2023-01-31T13:37:16;95469.19;;;1.21;78.39
23339;BME280;11841;49.368;20.962;2023-01-31T13:39:50;95473.78;;;1.11;78.54
23339;BME280;11841;49.368;20.962;2023-01-31T13:42:19;95464.16;;;1.11;78.16
23339;BME280;11841;49.368;20.962;2023-01-31T13:44:46;95462.19;;;1.13;78.55
23339;BME280;11841;49.368;20.962;2023-01-31T13:47:21;95456.31;;;1.19;79.40
23339;BME280;11841;49.368;20.962;2023-01-31T13:52:30;95467.88;;;1.33;79.42
23339;BME280;11841;49.368;20.962;2023-01-31T13:54:59;95475.88;;;1.32;79.30
23339;BME280;11841;49.368;20.962;2023-01-31T13:57:30;95477.19;;;1.36;79.72
23339;BME280;11841;49.368;20.962;2023-01-31T14:00:09;95473.41;;;1.38;80.04
23339;BME280;11841;49.368;20.962;2023-01-31T14:03:05;95476.03;;;1.30;80.58
23339;BME280;11841;49.368;20.962;2023-01-31T14:10:54;95464.13;;;1.27;82.09
23339;BME280;11841;49.368;20.962;2023-01-31T14:15:54;95469.03;;;1.14;82.17
23339;BME280;11841;49.368;20.962;2023-01-31T14:23:56;95447.47;;;1.20;82.48
23339;BME280;11841;49.368;20.962;2023-01-31T14:28:56;95464.31;;;1.18;81.68
23339;BME280;11841;49.368;20.962;2023-01-31T14:31:22;95460.72;;;1.11;82.16
23339;BME280;11841;49.368;20.962;2023-01-31T14:33:51;95471.16;;;1.11;82.62
23339;BME280;11841;49.368;20.962;2023-01-31T14:44:46;95474.09;;;1.16;80.80
23339;BME280;11841;49.368;20.962;2023-01-31T14:47:20;95477.38;;;1.10;79.16
23339;BME280;11841;49.368;20.962;2023-01-31T14:55:20;95478.19;;;1.10;79.37
23339;BME280;11841;49.368;20.962;2023-01-31T14:57:51;95481.59;;;1.11;78.79
23339;BME280;11841;49.368;20.962;2023-01-31T15:00:20;95472.81;;;1.12;78.65
23339;BME280;11841;49.368;20.962;2023-01-31T15:08:04;95478.03;;;1.04;77.96
23339;BME280;11841;49.368;20.962;2023-01-31T15:13:33;95468.56;;;1.11;78.72
23339;BME280;11841;49.368;20.962;2023-01-31T15:16:08;95472.47;;;1.15;78.72
23339;BME280;11841;49.368;20.962;2023-01-31T15:18:36;95468.72;;;1.17;79.26
23339;BME280;11841;49.368;20.962;2023-01-31T15:21:03;95467.25;;;1.23;79.27
23339;BME280;11841;49.368;20.962;2023-01-31T15:23:31;95468.72;;;1.26;79.42
23339;BME280;11841;49.368;20.962;2023-01-31T15:25:59;95471.47;;;1.32;79.44
23339;BME280;11841;49.368;20.962;2023-01-31T15:28:27;95464.25;;;1.34;79.51
23339;BME280;11841;49.368;20.962;2023-01-31T15:30:56;95452.84;;;1.35;79.87